Time;durP1;ratioP1;P1;durP2;ratioP2;P2;SDS_P1;SDS_P2;PMS_P1;PMS_P2;Temp;Humidity;BMP_temperature;BMP_pressure;BME280_temperature;BME280_humidity;BME280_pressure;Samples;Min_cycle;Max_cycle;Signal;HPM_P1;HPM_P2
2023/04/13 00:00:29;;;;;;;0.97;0.70;;;;;;;18.59;100.00;95182.38;5034883;28;20060;-48
2023/04/13 00:02:59;;;;;;;1.35;0.63;;;;;;;18.46;100.00;95185.19;5072074;28;20075;-50
2023/04/13 00:05:28;;;;;;;1.00;0.50;;;;;;;18.74;100.00;95180.13;5028554;28;20120;-47
2023/04/13 00:08:01;;;;;;;1.42;0.52;;;;;;;18.39;100.00;95179.94;5040635;28;20091;-48
2023/04/13 00:10:30;;;;;;;0.77;0.40;;;;;;;18.60;100.00;95191.19;5040245;28;20069;-53
2023/04/13 00:13:00;;;;;;;1.52;0.70;;;;;;;18.23;100.00;95201.91;5037927;28;20084;-48
2023/04/13 00:15:30;;;;;;;5.03;0.45;;;;;;;19.14;97.13;95198.25;5030740;28;20084;-49
2023/04/13 00:17:58;;;;;;;1.13;0.60;;;;;;;18.12;100.00;95202.66;5042957;28;20529;-50
2023/04/13 00:20:27;;;;;;;1.10;0.50;;;;;;;17.93;100.00;95202.66;5037254;28;20528;-50
2023/04/13 00:22:55;;;;;;;1.05;0.38;;;;;;;17.67;100.00;95218.88;5046041;28;20084;-49
2023/04/13 00:25:24;;;;;;;3.45;0.63;;;;;;;16.76;100.00;95228.16;5031571;28;20060;-47
2023/04/13 00:27:52;;;;;;;0.40;0.30;;;;;;;17.36;100.00;95225.09;5037794;28;20527;-47
2023/04/13 00:30:21;;;;;;;0.82;0.40;;;;;;;17.53;100.00;95229.66;5029599;28;20073;-48
2023/04/13 00:32:51;;;;;;;0.95;0.50;;;;;;;16.84;100.00;95231.38;5027099;28;20081;-46
2023/04/13 00:35:23;;;;;;;0.40;0.40;;;;;;;16.60;100.00;95230.22;5031304;28;20136;-47
2023/04/13 00:37:53;;;;;;;1.02;0.50;;;;;;;15.81;100.00;95231.31;5042330;28;20081;-49
2023/04/13 00:40:21;;;;;;;0.47;0.30;;;;;;;15.74;100.00;95230.50;5032845;28;20094;-50
2023/04/13 00:42:50;;;;;;;1.15;0.57;;;;;;;15.24;100.00;95229.25;5036104;28;20077;-45
2023/04/13 00:45:19;;;;;;;0.60;0.30;;;;;;;15.92;100.00;95239.69;5032529;28;20080;-51
2023/04/13 00:47:49;;;;;;;0.32;0.22;;;;;;;16.18;100.00;95244.94;5031040;28;20065;-48
2023/04/13 00:50:20;;;;;;;0.60;0.30;;;;;;;16.23;100.00;95249.63;5040762;28;20108;-49
2023/04/13 00:52:51;;;;;;;0.28;0.28;;;;;;;15.62;100.00;95259.53;5034062;28;20460;-48
2023/04/13 00:55:20;;;;;;;0.60;0.22;;;;;;;15.98;100.00;95262.78;5042402;28;20060;-45
2023/04/13 00:57:51;;;;;;;0.35;0.30;;;;;;;16.45;100.00;95250.16;5036565;28;20081;-50
2023/04/13 01:00:21;;;;;;;0.38;0.38;;;;;;;15.93;100.00;95251.94;5035219;28;20076;-45
2023/04/13 01:02:51;;;;;;;0.20;0.20;;;;;;;16.00;100.00;95258.91;5038973;28;20072;-48
2023/04/13 01:05:21;;;;;;;0.20;0.20;;;;;;;16.05;100.00;95267.06;5063177;28;20598;-44
2023/04/13 01:08:01;;;;;;;0.28;0.28;;;;;;;16.27;100.00;95269.44;5034076;28;20076;-48
2023/04/13 01:10:34;;;;;;;0.40;0.20;;;;;;;16.02;100.00;95264.81;5037691;28;20426;-47
2023/04/13 01:13:09;;;;;;;1.00;0.40;;;;;;;16.42;100.00;95258.56;5030405;28;20084;-48
2023/04/13 01:15:39;;;;;;;0.50;0.30;;;;;;;16.85;100.00;95267.59;5029308;28;20516;-52
2023/04/13 01:18:08;;;;;;;0.30;0.30;;;;;;;16.62;100.00;95269.97;5039288;28;20099;-47
2023/04/13 01:20:42;;;;;;;0.40;0.30;;;;;;;16.97;100.00;95275.75;5034435;28;20076;-50
2023/04/13 01:23:23;;;;;;;0.30;0.30;;;;;;;15.74;100.00;95285.50;5033712;28;20072;-47
2023/04/13 01:25:56;;;;;;;0.30;0.30;;;;;;;15.66;100.00;95278.56;5035244;28;20068;-49
2023/04/13 01:28:26;;;;;;;0.43;0.30;;;;;;;16.51;100.00;95271.41;5038019;28;20080;-48
2023/04/13 01:30:56;;;;;;;;;;;;;;;16.81;100.00;95266.41;5039336;28;20076;-45
2023/04/13 01:33:25;;;;;;;0.22;0.22;;;;;;;17.02;100.00;95272.44;5032526;28;19963;-46
2023/04/13 01:35:54;;;;;;;0.47;0.38;;;;;;;17.13;100.00;95265.59;5040994;28;20077;-43
2023/04/13 01:38:24;;;;;;;0.63;0.30;;;;;;;17.02;100.00;95265.25;5032272;28;20120;-50
2023/04/13 01:40:52;;;;;;;0.30;0.30;;;;;;;17.17;100.00;95259.66;5038701;28;20072;-45
2023/04/13 01:43:21;;;;;;;0.40;0.40;;;;;;;17.78;100.00;95256.31;5029600;28;20084;-43
2023/04/13 01:45:54;;;;;;;0.38;0.30;;;;;;;18.05;98.97;95242.72;5035660;28;20081;-47
2023/04/13 01:48:28;;;;;;;0.63;0.35;;;;;;;18.26;96.25;95250.28;5032235;28;20734;-47
2023/04/13 01:50:58;;;;;;;3.60;0.50;;;;;;;18.14;94.68;95249.41;5032465;28;20079;-46
2023/04/13 01:53:29;;;;;;;0.30;0.30;;;;;;;18.10;94.76;95258.06;5038202;28;20115;-46
2023/04/13 01:55:59;;;;;;;0.40;0.30;;;;;;;18.07;95.74;95259.34;5032474;28;20514;-49
2023/04/13 01:58:28;;;;;;;0.40;0.40;;;;;;;17.51;98.54;95266.34;5042908;28;20076;-45
2023/04/13 02:00:58;;;;;;;0.43;0.30;;;;;;;18.03;96.89;95264.31;5037506;28;20084;-48
2023/04/13 02:03:27;;;;;;;0.50;0.40;;;;;;;17.62;96.44;95278.19;5042027;28;20096;-45
2023/04/13 02:05:55;;;;;;;0.60;0.40;;;;;;;17.48;99.23;95281.97;5032649;28;20116;-45
2023/04/13 02:08:24;;;;;;;1.00;0.60;;;;;;;17.90;95.70;95285.75;5039257;28;20091;-45
2023/04/13 02:10:52;;;;;;;0.70;0.40;;;;;;;17.98;95.55;95279.34;5032735;28;20080;-44
2023/04/13 02:13:21;;;;;;;0.52;0.52;;;;;;;17.66;96.41;95289.22;5031902;28;20720;-45
2023/04/13 02:15:49;;;;;;;0.30;0.30;;;;;;;17.83;93.86;95286.88;5036182;28;20529;-47
2023/04/13 02:18:19;;;;;;;0.40;0.38;;;;;;;18.13;90.04;95281.63;5038267;28;20088;-45
2023/04/13 02:20:47;;;;;;;1.70;0.40;;;;;;;18.39;88.05;95280.56;5030456;28;20076;-46
2023/04/13 02:23:16;;;;;;;0.80;0.40;;;;;;;18.57;85.28;95266.38;5029474;28;20172;-44
2023/04/13 02:25:45;;;;;;;1.05;0.45;;;;;;;18.38;84.30;95269.06;5030405;28;20095;-45
2023/04/13 02:28:16;;;;;;;1.75;0.47;;;;;;;18.41;84.25;95279.31;5037396;28;20099;-46
2023/04/13 02:30:45;;;;;;;0.85;0.40;;;;;;;17.78;88.88;95295.50;5035327;28;20545;-48
2023/04/13 02:33:14;;;;;;;1.08;0.30;;;;;;;17.28;92.50;95296.25;5029400;28;20077;-46
2023/04/13 02:35:44;;;;;;;1.17;0.47;;;;;;;16.90;100.00;95298.94;5038481;28;20089;-50
2023/04/13 02:38:12;;;;;;;1.30;0.85;;;;;;;17.35;98.46;95296.22;5042377;28;20081;-44
2023/04/13 02:40:41;;;;;;;3.00;0.40;;;;;;;16.63;100.00;95308.03;5032786;28;20077;-46
2023/04/13 02:43:11;;;;;;;0.90;0.50;;;;;;;16.78;100.00;95304.09;5035471;28;20095;-46
2023/04/13 02:45:39;;;;;;;0.95;0.40;;;;;;;16.58;100.00;95308.66;5033918;28;20611;-46
2023/04/13 02:48:09;;;;;;;1.55;0.55;;;;;;;16.26;100.00;95313.84;5036678;28;20077;-46
2023/04/13 02:50:37;;;;;;;1.48;0.40;;;;;;;16.29;100.00;95323.28;5033008;28;20088;-50
2023/04/13 02:53:07;;;;;;;1.15;0.55;;;;;;;16.22;100.00;95320.63;5042163;28;20092;-49
2023/04/13 02:55:36;;;;;;;0.20;0.20;;;;;;;16.25;100.00;95316.75;5032090;28;20088;-49
2023/04/13 02:58:05;;;;;;;0.55;0.40;;;;;;;16.52;100.00;95317.50;5046358;28;20081;-47
2023/04/13 03:00:33;;;;;;;0.30;0.30;;;;;;;15.96;100.00;95328.63;5031926;28;20085;-50
2023/04/13 03:03:02;;;;;;;2.38;0.40;;;;;;;15.92;100.00;95336.19;5032005;28;20093;-46
2023/04/13 03:05:31;;;;;;;0.88;0.35;;;;;;;16.31;100.00;95326.53;5036930;28;20084;-48
2023/04/13 03:07:59;;;;;;;0.35;0.35;;;;;;;15.85;100.00;95336.19;5033502;28;20049;-45
2023/04/13 03:10:30;;;;;;;0.30;0.30;;;;;;;16.26;100.00;95323.69;5031649;28;20086;-50
2023/04/13 03:12:59;;;;;;;0.63;0.40;;;;;;;16.05;100.00;95327.41;5032567;28;20085;-47
2023/04/13 03:15:27;;;;;;;0.30;0.30;;;;;;;15.76;100.00;95323.31;5034774;28;20085;-49
2023/04/13 03:17:58;;;;;;;1.95;0.68;;;;;;;15.72;100.00;95328.22;5034251;28;20091;-48
2023/04/13 03:20:27;;;;;;;0.30;0.30;;;;;;;15.70;100.00;95319.66;5035657;28;20088;-47
2023/04/13 03:22:57;;;;;;;0.47;0.25;;;;;;;15.51;100.00;95315.91;5037139;28;20693;-48
2023/04/13 03:25:25;;;;;;;0.40;0.30;;;;;;;16.29;100.00;95300.16;5033239;28;20064;-47
2023/04/13 03:27:55;;;;;;;0.30;0.30;;;;;;;16.27;100.00;95293.38;5036311;28;20081;-48
2023/04/13 03:30:23;;;;;;;0.73;0.30;;;;;;;16.27;100.00;95290.72;5040034;28;20091;-49
2023/04/13 03:32:52;;;;;;;2.38;0.40;;;;;;;15.96;100.00;95294.88;5033258;28;20080;-49
2023/04/13 03:35:20;;;;;;;0.25;0.20;;;;;;;15.89;100.00;95299.38;5029678;28;20096;-46
2023/04/13 03:37:49;;;;;;;0.28;0.28;;;;;;;16.18;100.00;95297.31;5038517;28;20081;-48
2023/04/13 03:40:17;;;;;;;2.40;0.32;;;;;;;15.92;100.00;95306.16;5041068;28;20096;-48
2023/04/13 03:42:46;;;;;;;0.95;0.32;;;;;;;16.16;100.00;95294.03;5042682;28;20567;-48
2023/04/13 03:45:15;;;;;;;0.45;0.30;;;;;;;16.23;99.65;95294.84;5038021;28;20088;-47
2023/04/13 03:47:44;;;;;;;1.23;0.40;;;;;;;16.09;99.62;95283.41;5037033;28;20081;-47
2023/04/13 03:50:12;;;;;;;0.40;0.30;;;;;;;16.68;94.56;95289.56;5032975;28;20084;-47
2023/04/13 03:52:40;;;;;;;0.40;0.40;;;;;;;16.19;94.05;95293.63;5042310;28;20533;-46
2023/04/13 03:55:09;;;;;;;0.50;0.38;;;;;;;16.76;89.95;95300.03;5031937;28;20089;-47
2023/04/13 03:57:37;;;;;;;0.47;0.30;;;;;;;16.55;89.23;95299.25;5030415;28;20088;-47
2023/04/13 04:00:10;;;;;;;0.30;0.30;;;;;;;16.34;91.42;95303.00;5035681;28;20091;-44
2023/04/13 04:02:40;;;;;;;0.47;0.30;;;;;;;15.56;95.59;95316.16;5031602;28;20080;-45
2023/04/13 04:05:09;;;;;;;0.40;0.40;;;;;;;16.40;95.07;95309.31;5042022;28;20080;-45
2023/04/13 04:07:37;;;;;;;0.30;0.30;;;;;;;16.46;89.02;95315.66;5039821;28;20095;-46
2023/04/13 04:10:07;;;;;;;0.70;0.30;;;;;;;16.16;92.22;95316.13;5029479;28;20081;-46
2023/04/13 04:12:36;;;;;;;0.80;0.50;;;;;;;16.70;83.85;95306.16;5034505;28;20072;-47
2023/04/13 04:15:05;;;;;;;0.63;0.43;;;;;;;17.03;81.64;95304.19;5032849;28;20081;-46
2023/04/13 04:17:33;;;;;;;0.50;0.40;;;;;;;16.29;85.38;95296.69;5031247;28;20081;-45
2023/04/13 04:20:06;;;;;;;1.00;0.45;;;;;;;16.33;88.79;95298.69;5032020;28;20533;-48
2023/04/13 04:22:35;;;;;;;0.32;0.30;;;;;;;16.52;87.94;95304.19;5033799;28;20077;-44
2023/04/13 04:25:04;;;;;;;0.63;0.40;;;;;;;16.73;83.54;95297.75;5035561;28;20076;-46
2023/04/13 04:27:36;;;;;;;0.40;0.30;;;;;;;16.55;84.05;95298.41;4990822;28;1122598;-45
2023/04/13 04:30:09;;;;;;;2.40;0.40;;;;;;;16.37;87.54;95291.94;5036889;28;20081;-50
2023/04/13 04:32:39;;;;;;;0.70;0.40;;;;;;;16.39;85.87;95302.38;5036543;28;20077;-44
2023/04/13 04:35:11;;;;;;;0.30;0.30;;;;;;;16.31;87.19;95303.44;5033872;28;20530;-48
2023/04/13 04:37:39;;;;;;;0.38;0.38;;;;;;;16.48;89.84;95302.94;5035790;28;20073;-49
2023/04/13 04:40:09;;;;;;;0.40;0.40;;;;;;;15.52;100.00;95317.56;5034436;28;20096;-45
2023/04/13 04:42:37;;;;;;;0.40;0.40;;;;;;;16.06;92.09;95307.75;5029494;28;20081;-49
2023/04/13 04:45:06;;;;;;;0.73;0.30;;;;;;;16.21;91.38;95308.38;5037658;28;20551;-46
2023/04/13 04:47:40;;;;;;;0.60;0.40;;;;;;;16.07;90.00;95310.22;5032197;28;20073;-46
2023/04/13 04:50:13;;;;;;;0.70;0.50;;;;;;;16.04;92.41;95309.81;5035392;28;20088;-45
2023/04/13 04:52:41;;;;;;;1.05;0.40;;;;;;;16.00;90.73;95314.75;5028682;28;20088;-48
2023/04/13 04:55:10;;;;;;;0.80;0.45;;;;;;;16.27;91.90;95312.81;5038369;28;20085;-50
2023/04/13 04:57:38;;;;;;;0.93;0.70;;;;;;;15.79;95.85;95322.91;5031984;28;20095;-48
2023/04/13 05:00:13;;;;;;;2.63;1.20;;;;;;;15.43;98.91;95322.25;5030806;28;20089;-46
2023/04/13 05:02:42;;;;;;;0.65;0.45;;;;;;;15.76;95.33;95326.81;5033181;28;20476;-46
2023/04/13 05:05:12;;;;;;;2.90;0.77;;;;;;;15.91;95.24;95323.94;5039506;28;20727;-48
2023/04/13 05:07:40;;;;;;;0.77;0.60;;;;;;;15.48;100.00;95331.44;5035214;28;20091;-47
2023/04/13 05:10:09;;;;;;;2.38;0.63;;;;;;;15.65;96.14;95322.88;5028946;28;20906;-48
2023/04/13 05:12:37;;;;;;;1.42;0.80;;;;;;;15.65;93.37;95322.06;5034090;28;20077;-46
2023/04/13 05:15:07;;;;;;;3.05;0.88;;;;;;;15.95;89.81;95327.00;5033296;28;20605;-46
2023/04/13 05:17:36;;;;;;;1.63;0.95;;;;;;;16.16;89.71;95321.44;5036917;28;20107;-45
2023/04/13 05:20:06;;;;;;;3.15;1.17;;;;;;;16.19;87.63;95317.56;5031130;28;20085;-49
2023/04/13 05:22:36;;;;;;;5.13;1.65;;;;;;;16.34;80.40;95328.78;5036291;28;20065;-46
2023/04/13 05:25:05;;;;;;;4.68;1.10;;;;;;;16.07;83.97;95328.00;5026594;28;20088;-46
2023/04/13 05:27:33;;;;;;;2.28;0.90;;;;;;;16.41;82.99;95323.44;5043740;28;20103;-47
2023/04/13 05:30:02;;;;;;;0.70;0.70;;;;;;;16.16;88.06;95332.09;5031411;28;20084;-47
2023/04/13 05:32:33;;;;;;;1.98;0.82;;;;;;;16.48;84.17;95330.41;5034144;28;20473;-50
2023/04/13 05:35:03;;;;;;;1.75;0.95;;;;;;;16.30;85.40;95339.00;5026670;28;20104;-48
2023/04/13 05:37:31;;;;;;;2.28;0.80;;;;;;;16.20;86.95;95337.81;5040448;28;20665;-49
2023/04/13 05:40:01;;;;;;;3.58;1.00;;;;;;;15.88;89.54;95341.09;5034705;28;20081;-46
2023/04/13 05:42:30;;;;;;;2.40;0.68;;;;;;;16.55;79.40;95347.16;5031511;28;20104;-49
2023/04/13 05:44:58;;;;;;;1.48;0.50;;;;;;;16.19;81.51;95346.81;5034822;28;20077;-49
2023/04/13 05:47:26;;;;;;;0.50;0.50;;;;;;;16.05;82.58;95346.03;5032709;28;20533;-47
2023/04/13 05:49:54;;;;;;;0.90;0.50;;;;;;;15.60;87.55;95357.22;5026224;28;20081;-46
2023/04/13 05:52:23;;;;;;;1.02;0.70;;;;;;;16.41;80.44;95350.84;5035294;28;20132;-46
2023/04/13 05:54:51;;;;;;;1.13;0.60;;;;;;;16.28;77.87;95357.03;5029350;28;20092;-48
2023/04/13 05:57:21;;;;;;;0.85;0.65;;;;;;;16.16;78.33;95369.31;5031820;28;20084;-44
2023/04/13 05:59:50;;;;;;;1.17;0.60;;;;;;;15.61;85.56;95363.34;5041939;28;20559;-48
2023/04/13 06:02:19;;;;;;;0.52;0.40;;;;;;;16.19;80.37;95363.59;5034228;28;20131;-50
2023/04/13 06:04:48;;;;;;;1.38;0.68;;;;;;;16.03;82.34;95362.16;5043362;28;20091;-46
2023/04/13 06:07:16;;;;;;;0.40;0.40;;;;;;;15.94;75.91;95363.41;5027402;28;20092;-51
2023/04/13 06:09:44;;;;;;;0.80;0.52;;;;;;;16.41;75.98;95360.69;5027729;28;20085;-49
2023/04/13 06:12:14;;;;;;;2.05;0.60;;;;;;;16.10;81.16;95370.97;5033412;28;20091;-47
2023/04/13 06:14:44;;;;;;;0.85;0.60;;;;;;;15.40;80.42;95385.59;5033368;28;20178;-49
2023/04/13 06:17:13;;;;;;;1.33;0.75;;;;;;;16.16;78.68;95379.16;5031805;28;20073;-46
2023/04/13 06:19:41;;;;;;;1.30;0.70;;;;;;;16.10;76.39;95383.44;5035655;28;20088;-51
2023/04/13 06:22:09;;;;;;;2.28;0.68;;;;;;;16.54;73.65;95388.09;5036022;28;20088;-47
2023/04/13 06:24:37;;;;;;;1.00;0.68;;;;;;;16.07;76.15;95395.31;5035973;28;20041;-47
2023/04/13 06:27:06;;;;;;;2.90;0.77;;;;;;;16.17;78.57;95397.53;5041023;28;20098;-46
2023/04/13 06:29:34;;;;;;;1.25;0.80;;;;;;;16.51;76.14;95406.31;5030121;28;20088;-46
2023/04/13 06:32:06;;;;;;;0.90;0.45;;;;;;;16.00;77.64;95406.97;5032763;28;20080;-47
2023/04/13 06:34:34;;;;;;;1.13;0.40;;;;;;;15.92;76.39;95399.19;5033330;28;20442;-44
2023/04/13 06:37:03;;;;;;;0.47;0.43;;;;;;;16.42;72.38;95402.25;5026624;28;20478;-44
2023/04/13 06:39:36;;;;;;;0.82;0.43;;;;;;;16.36;72.47;95399.38;5040034;28;20084;-47
2023/04/13 06:42:05;;;;;;;0.40;0.40;;;;;;;16.30;68.36;95396.72;5028643;28;20103;-47
2023/04/13 06:44:33;;;;;;;1.25;0.50;;;;;;;16.32;71.71;95405.34;5036762;28;20077;-50
2023/04/13 06:47:01;;;;;;;0.93;0.60;;;;;;;16.32;72.26;95398.16;5028726;28;20084;-46
2023/04/13 06:49:33;;;;;;;0.73;0.40;;;;;;;17.02;65.14;95393.09;5037749;28;20081;-48
2023/04/13 06:52:01;;;;;;;1.85;0.52;;;;;;;16.85;67.36;95400.72;5031277;28;20086;-45
2023/04/13 06:54:30;;;;;;;2.50;0.45;;;;;;;16.40;67.64;95391.00;5036136;28;20118;-52
2023/04/13 06:57:00;;;;;;;1.02;0.68;;;;;;;16.93;66.29;95391.72;5031894;28;20096;-46
2023/04/13 06:59:29;;;;;;;;;;;;;;;16.55;68.95;95400.38;5024074;28;20069;-45
2023/04/13 07:01:57;;;;;;;0.80;0.60;;;;;;;17.29;63.69;95391.13;5031980;28;19995;-51
2023/04/13 07:04:25;;;;;;;1.40;0.50;;;;;;;17.06;60.86;95393.50;5035953;28;20077;-46
2023/04/13 07:07:01;;;;;;;0.47;0.40;;;;;;;17.69;61.47;95390.94;5032892;28;20085;-45
2023/04/13 07:09:29;;;;;;;11.80;3.50;;;;;;;17.47;60.79;95394.94;5033256;28;20077;-52
2023/04/13 07:12:03;;;;;;;0.77;0.50;;;;;;;17.66;62.36;95396.69;5031516;28;20093;-47
2023/04/13 07:14:33;;;;;;;1.05;0.50;;;;;;;17.09;61.75;95391.22;5028761;28;20095;-50
2023/04/13 07:17:01;;;;;;;3.63;1.50;;;;;;;17.08;61.00;95392.25;5027634;28;20088;-50
2023/04/13 07:19:30;;;;;;;3.10;0.88;;;;;;;17.76;59.73;95394.41;5036166;28;20096;-46
2023/04/13 07:22:03;;;;;;;0.85;0.55;;;;;;;17.33;61.27;95402.19;5032682;28;20085;-46
2023/04/13 07:24:34;;;;;;;0.25;0.25;;;;;;;16.67;66.33;95407.72;5039644;28;20083;-49
2023/04/13 07:27:03;;;;;;;0.88;0.40;;;;;;;17.49;60.07;95401.69;5032064;28;20955;-46
2023/04/13 07:29:31;;;;;;;2.00;0.80;;;;;;;17.42;58.57;95390.25;5038683;28;20088;-48
2023/04/13 07:32:00;;;;;;;0.57;0.40;;;;;;;17.18;60.77;95391.00;5039154;28;20108;-48
2023/04/13 07:34:29;;;;;;;0.50;0.30;;;;;;;17.37;61.81;95397.25;5036757;28;20478;-49
2023/04/13 07:36:57;;;;;;;0.28;0.28;;;;;;;17.06;60.20;95402.31;5039926;28;20088;-47
2023/04/13 07:39:27;;;;;;;0.93;0.47;;;;;;;17.86;59.42;95403.75;5042126;28;20088;-46
2023/04/13 07:41:56;;;;;;;0.80;0.40;;;;;;;17.58;60.93;95396.91;5032721;28;20087;-50
2023/04/13 07:44:25;;;;;;;1.15;0.60;;;;;;;16.77;57.06;95410.81;5035977;28;20884;-50
2023/04/13 07:46:54;;;;;;;0.95;0.45;;;;;;;17.30;58.49;95402.63;5035969;28;20084;-44
2023/04/13 07:49:23;;;;;;;1.20;0.43;;;;;;;17.35;58.82;95396.66;5036006;28;20092;-45
2023/04/13 07:51:53;;;;;;;3.47;0.90;;;;;;;17.44;54.72;95398.03;5038887;28;20081;-50
2023/04/13 07:54:21;;;;;;;1.77;1.00;;;;;;;16.80;55.04;95397.91;5035895;28;20077;-49
2023/04/13 07:56:51;;;;;;;0.70;0.50;;;;;;;16.50;60.20;95394.84;5038937;28;20076;-48
2023/04/13 07:59:19;;;;;;;3.67;0.77;;;;;;;16.78;61.38;95397.28;5020489;28;20077;-46
2023/04/13 08:01:48;;;;;;;1.38;0.50;;;;;;;17.25;54.98;95397.94;5038369;28;20491;-48
2023/04/13 08:04:16;;;;;;;3.13;0.60;;;;;;;16.84;56.11;95396.44;5032803;28;20084;-47
2023/04/13 08:06:45;;;;;;;5.60;0.77;;;;;;;16.85;58.62;95384.75;5036809;28;20076;-51
2023/04/13 08:09:14;;;;;;;1.02;0.40;;;;;;;17.03;57.03;95400.09;5034357;28;20525;-50
2023/04/13 08:11:43;;;;;;;1.00;0.60;;;;;;;17.85;59.19;95394.94;5041289;28;20081;-43
2023/04/13 08:14:12;;;;;;;1.08;0.45;;;;;;;17.00;53.51;95381.84;5034143;28;20088;-50
2023/04/13 08:16:41;;;;;;;1.17;0.43;;;;;;;17.09;54.93;95391.22;5035340;28;20552;-48
2023/04/13 08:19:09;;;;;;;0.88;0.40;;;;;;;16.76;55.02;95391.34;5038411;28;20087;-47
2023/04/13 08:21:40;;;;;;;1.05;0.43;;;;;;;16.63;53.76;95378.06;5042843;28;20085;-46
2023/04/13 08:24:08;;;;;;;;;;;;;;;17.12;53.53;95358.03;5040581;28;20089;-50
2023/04/13 08:26:36;;;;;;;2.05;0.50;;;;;;;16.71;51.22;95382.31;5042189;28;19960;-49
2023/04/13 08:29:05;;;;;;;4.95;0.93;;;;;;;16.13;53.49;95388.34;5041291;28;20076;-46
2023/04/13 08:31:34;;;;;;;0.60;0.40;;;;;;;17.06;49.76;95393.50;5038841;28;20085;-44
2023/04/13 08:34:03;;;;;;;5.13;0.50;;;;;;;17.12;49.84;95391.84;5043382;28;20092;-50
2023/04/13 08:36:32;;;;;;;2.22;0.40;;;;;;;16.58;49.75;95394.63;5037153;28;20548;-45
2023/04/13 08:39:00;;;;;;;1.27;0.60;;;;;;;16.93;50.61;95391.72;5037770;28;20585;-46
2023/04/13 08:41:30;;;;;;;1.27;0.93;;;;;;;17.32;49.00;95392.56;5029782;28;20092;-50
2023/04/13 08:44:00;;;;;;;2.33;0.52;;;;;;;17.84;49.10;95406.63;5038074;28;20556;-46
2023/04/13 08:46:29;;;;;;;0.82;0.75;;;;;;;16.82;49.21;95387.84;5039415;28;20088;-48
2023/04/13 08:48:59;;;;;;;1.92;0.60;;;;;;;17.18;48.04;95394.47;5033024;28;20065;-48
2023/04/13 08:51:28;;;;;;;2.15;0.68;;;;;;;16.70;48.58;95381.50;5037985;28;20072;-49
2023/04/13 08:53:57;;;;;;;2.47;0.40;;;;;;;16.18;48.80;95383.25;5037777;28;20084;-46
2023/04/13 08:56:26;;;;;;;1.02;0.70;;;;;;;16.71;47.39;95363.69;5031354;28;20486;-47
2023/04/13 08:59:14;;;;;;;2.65;0.60;;;;;;;17.04;47.72;95376.94;5034058;28;20088;-45
2023/04/13 09:01:45;;;;;;;4.93;0.30;;;;;;;17.13;44.94;95377.50;5025876;28;20092;-44
2023/04/13 09:04:17;;;;;;;0.60;0.35;;;;;;;17.02;46.07;95376.31;5031643;28;20077;-50
2023/04/13 09:06:49;;;;;;;0.30;0.30;;;;;;;17.47;44.54;95376.28;5029432;28;20076;-48
2023/04/13 09:09:19;;;;;;;0.40;0.40;;;;;;;17.63;44.18;95377.63;5032555;28;20077;-47
2023/04/13 09:11:48;;;;;;;2.72;0.40;;;;;;;17.21;41.67;95377.25;5033914;28;20072;-48
2023/04/13 09:14:20;;;;;;;0.85;0.40;;;;;;;18.35;44.24;95378.13;5071555;28;20139;-46
2023/04/13 09:16:49;;;;;;;2.00;0.50;;;;;;;17.30;41.88;95362.66;5034892;28;20037;-46
2023/04/13 09:19:28;;;;;;;3.03;1.05;;;;;;;18.76;42.30;95360.69;5040749;28;20073;-48
2023/04/13 09:21:57;;;;;;;3.25;0.70;;;;;;;18.33;41.48;95364.97;5035641;28;20088;-49
2023/04/13 09:24:26;;;;;;;0.77;0.35;;;;;;;18.35;40.73;95360.25;5040093;28;20479;-46
2023/04/13 09:26:54;;;;;;;4.55;1.08;;;;;;;18.21;40.31;95358.75;5035239;28;20076;-46
2023/04/13 09:29:22;;;;;;;1.17;0.40;;;;;;;19.02;42.00;95360.38;5036784;28;20465;-48
2023/04/13 09:31:51;;;;;;;9.52;0.70;;;;;;;18.09;39.54;95369.31;5034677;28;20561;-47
2023/04/13 09:34:27;;;;;;;2.53;0.30;;;;;;;19.00;37.81;95351.78;5031701;28;20085;-49
2023/04/13 09:36:56;;;;;;;1.02;0.35;;;;;;;19.05;37.02;95356.44;5037180;28;20681;-44
2023/04/13 09:39:28;;;;;;;1.98;0.50;;;;;;;18.96;37.97;95363.97;5031880;28;20537;-51
2023/04/13 09:41:58;;;;;;;1.48;0.38;;;;;;;18.90;39.65;95364.84;5036503;28;20344;-50
2023/04/13 09:44:29;;;;;;;0.38;0.38;;;;;;;19.29;39.72;95360.84;5029034;28;20081;-47
2023/04/13 09:46:58;;;;;;;3.53;0.52;;;;;;;18.88;40.86;95345.53;5030879;28;20065;-49
2023/04/13 09:49:37;;;;;;;1.38;0.35;;;;;;;19.49;38.59;95335.72;5029384;28;20085;-49
2023/04/13 09:52:06;;;;;;;2.13;0.50;;;;;;;19.19;39.01;95342.69;5029040;28;20085;-47
2023/04/13 09:54:35;;;;;;;0.30;0.30;;;;;;;19.52;37.51;95346.75;5033020;28;20184;-46
2023/04/13 09:57:03;;;;;;;0.55;0.38;;;;;;;20.53;39.27;95342.28;5030737;28;20580;-47
2023/04/13 09:59:32;;;;;;;1.20;0.40;;;;;;;19.51;36.81;95342.47;5034347;28;20081;-45
2023/04/13 10:02:02;;;;;;;1.05;0.32;;;;;;;20.12;38.08;95335.97;5038344;28;20092;-46
2023/04/13 10:04:34;;;;;;;1.20;0.50;;;;;;;18.88;38.53;95348.22;5033652;28;20480;-49
2023/04/13 10:07:03;;;;;;;1.25;0.47;;;;;;;19.77;37.14;95335.13;5029812;28;20072;-45
2023/04/13 10:09:32;;;;;;;1.52;0.50;;;;;;;18.94;37.44;95336.63;5037423;28;20120;-46
2023/04/13 10:12:00;;;;;;;2.47;0.28;;;;;;;19.86;38.85;95323.84;5028818;28;20085;-49
2023/04/13 10:14:32;;;;;;;2.42;0.70;;;;;;;20.64;37.84;95319.19;5040733;28;20088;-43
2023/04/13 10:17:11;;;;;;;1.38;0.40;;;;;;;20.17;36.12;95326.44;5037095;28;20076;-47
2023/04/13 10:19:43;;;;;;;1.15;0.40;;;;;;;20.08;36.37;95326.78;5033100;28;20080;-45
2023/04/13 10:22:12;;;;;;;1.35;0.30;;;;;;;20.29;37.70;95325.38;5030721;28;20088;-50
2023/04/13 10:24:41;;;;;;;0.70;0.38;;;;;;;19.26;37.46;95313.19;5029933;28;20084;-46
2023/04/13 10:27:14;;;;;;;0.75;0.30;;;;;;;20.33;37.16;95323.84;5033540;28;20087;-46
2023/04/13 10:29:43;;;;;;;0.65;0.30;;;;;;;20.12;35.01;95316.41;5034758;28;20537;-46
2023/04/13 10:32:20;;;;;;;0.30;0.30;;;;;;;19.84;37.97;95301.03;5041006;28;20145;-46
2023/04/13 10:34:50;;;;;;;1.92;0.50;;;;;;;20.03;36.71;95315.97;5034619;28;20076;-47
2023/04/13 10:37:21;;;;;;;1.75;0.43;;;;;;;20.99;34.99;95299.53;5033534;28;20085;-47
2023/04/13 10:40:02;;;;;;;1.02;0.30;;;;;;;20.12;35.81;95311.06;5030809;28;20077;-45
2023/04/13 10:42:39;;;;;;;0.52;0.35;;;;;;;20.69;36.39;95308.59;5031194;28;20683;-47
2023/04/13 10:45:21;;;;;;;1.63;0.35;;;;;;;19.94;36.59;95320.00;5032372;28;20089;-45
2023/04/13 10:47:49;;;;;;;1.48;0.30;;;;;;;19.89;36.18;95323.38;5023912;28;20077;-46
2023/04/13 10:50:21;;;;;;;2.95;0.40;;;;;;;20.78;33.27;95309.84;5037200;28;20089;-48
2023/04/13 10:53:00;;;;;;;1.25;0.50;;;;;;;21.67;35.99;95298.69;5032971;28;20555;-46
2023/04/13 10:55:29;;;;;;;3.60;0.70;;;;;;;20.74;36.02;95302.53;5038630;28;20084;-46
2023/04/13 10:57:59;;;;;;;0.63;0.30;;;;;;;20.03;33.56;95305.25;5034962;28;20092;-48
2023/04/13 11:00:29;;;;;;;0.40;0.20;;;;;;;20.05;36.08;95308.50;5038647;28;20081;-47
2023/04/13 11:03:14;;;;;;;1.45;0.40;;;;;;;19.95;37.08;95297.56;5038540;28;20081;-47
2023/04/13 11:05:46;;;;;;;3.35;0.50;;;;;;;20.48;34.50;95295.81;5028105;28;20073;-46
2023/04/13 11:08:19;;;;;;;1.00;0.40;;;;;;;19.82;35.63;95308.47;5036852;28;20103;-47
2023/04/13 11:10:51;;;;;;;2.15;0.57;;;;;;;21.20;34.00;95301.59;5035149;28;20083;-46
2023/04/13 11:13:20;;;;;;;2.00;0.65;;;;;;;20.45;34.39;95304.31;5040250;28;20092;-48
2023/04/13 11:15:50;;;;;;;2.33;0.57;;;;;;;20.13;34.69;95312.69;5036159;28;20072;-45
2023/04/13 11:18:25;;;;;;;3.03;0.60;;;;;;;19.66;35.58;95320.66;5037984;28;20077;-47
2023/04/13 11:20:55;;;;;;;1.95;0.50;;;;;;;19.08;37.68;95318.59;5040478;28;20076;-48
2023/04/13 11:23:24;;;;;;;1.80;0.28;;;;;;;18.99;37.90;95312.72;5039943;28;20091;-49
2023/04/13 11:25:53;;;;;;;0.25;0.20;;;;;;;19.45;37.45;95312.09;5036995;28;20532;-48
2023/04/13 11:28:22;;;;;;;3.15;0.57;;;;;;;20.05;37.95;95305.81;5039065;28;20452;-46
2023/04/13 11:30:55;;;;;;;8.32;0.77;;;;;;;19.71;36.43;95314.63;5035269;28;20081;-49
2023/04/13 11:33:25;;;;;;;1.23;0.40;;;;;;;19.16;36.54;95310.25;5040110;28;20090;-47
2023/04/13 11:35:55;;;;;;;2.40;0.40;;;;;;;20.57;36.29;95299.75;5041149;28;20076;-49
2023/04/13 11:38:24;;;;;;;1.08;0.22;;;;;;;20.29;35.09;95309.31;5036144;28;20092;-45
2023/04/13 11:40:53;;;;;;;0.50;0.20;;;;;;;19.82;35.61;95308.47;5040554;28;20072;-45
2023/04/13 11:43:41;;;;;;;4.50;0.60;;;;;;;20.30;36.86;95299.41;5031190;28;20065;-49